KAFJ

Washington County Airport

Washington, Pennsylvania, USA
METAR KAFJ 160456Z AUTO 06009KT 7SM RA OVC008 07/06 A2993 RMK AO2 SLP140 P0002 T00720061
Observed Flight Rules
Dec-16 @ 04:56 UTC (57 minutes ago) Instrument Flight Rules
Wind Visibility Clouds Conditions
60° at 9 knots 7 miles
  • Overcast at 800' AGL
  • Rain
Temperatures Readings Precipitation
Current 7°C / 45°F
Dewpoint 6°C / 43°F
Humidity 93%
Altimeter 29.93" Hg
Pressure 1014 hPa
Elevation 361
Current Rain 0.02
METAR KAFJ 160456Z AUTO 06009KT 7SM RA OVC008 07/06 A2993 RMK AO2 SLP140 P0002 T00720061
Observed Flight Rules
Dec-16 @ 04:56 UTC
(57 minutes ago)
IFR
Wind Visibility
60° at 9 knots 7 miles
Clouds
  • Overcast at 800' AGL
Conditions
  • Rain
Temperature Dewpoint
7°C / 45°F 6°C / 43°F
Humidity Altimeter Pressure
93% 29.93" Hg 1014 hPa
Current Rain
0.02